createdAt,value
2022-11-30T00:03:00.495Z,4.59
2022-11-30T00:07:04.042Z,4.63
2022-11-30T00:11:13.481Z,4.62
2022-11-30T00:15:18.822Z,4.62
2022-11-30T00:19:22.265Z,4.59
2022-11-30T00:23:25.630Z,4.59
2022-11-30T00:27:29.709Z,4.58
2022-11-30T00:31:34.321Z,4.58
2022-11-30T00:35:37.829Z,4.57
2022-11-30T00:39:41.635Z,4.57
2022-11-30T00:43:45.148Z,4.56
2022-11-30T00:47:50.068Z,4.51
2022-11-30T00:51:53.548Z,4.46
2022-11-30T00:55:56.848Z,4.54
2022-11-30T01:00:00.309Z,4.56
2022-11-30T01:04:05.060Z,4.56
2022-11-30T01:08:11.580Z,4.57
2022-11-30T01:12:15.035Z,4.57
2022-11-30T01:16:21.225Z,4.57
2022-11-30T01:20:25.911Z,4.56
2022-11-30T01:24:29.460Z,4.54
2022-11-30T01:28:32.992Z,4.51
2022-11-30T01:32:36.155Z,4.46
2022-11-30T01:36:41.138Z,4.40
2022-11-30T01:40:51.782Z,4.32
2022-11-30T01:44:57.467Z,4.23
2022-11-30T01:49:16.691Z,4.15
2022-11-30T01:53:21.657Z,4.11
2022-11-30T01:57:31.723Z,4.09
2022-11-30T02:01:35.155Z,4.09
2022-11-30T02:05:41.290Z,4.15
2022-11-30T02:09:47.128Z,4.21
2022-11-30T02:14:04.325Z,4.28
2022-11-30T02:18:14.459Z,4.36
2022-11-30T02:22:34.669Z,4.44
2022-11-30T02:27:06.682Z,4.50
2022-11-30T02:31:18.526Z,4.57
2022-11-30T02:35:26.813Z,4.61
2022-11-30T02:39:30.411Z,4.63
2022-11-30T02:43:34.420Z,4.66
2022-11-30T02:47:46.928Z,4.69
2022-11-30T02:51:52.209Z,4.69
2022-11-30T02:55:56.630Z,4.69
2022-11-30T03:00:02.298Z,4.68
2022-11-30T03:04:06.882Z,4.66
2022-11-30T03:08:10.382Z,4.65
2022-11-30T03:12:13.495Z,4.62
2022-11-30T03:16:17.198Z,4.60
2022-11-30T03:20:22.149Z,4.58
2022-11-30T03:24:25.149Z,4.53
2022-11-30T03:28:28.761Z,4.50
2022-11-30T03:32:32.617Z,4.48
2022-11-30T03:36:37.623Z,4.46
2022-11-30T03:40:41.187Z,4.45
2022-11-30T03:44:45.116Z,4.45
2022-11-30T03:48:48.962Z,4.44
2022-11-30T03:52:53.344Z,4.45
2022-11-30T03:56:56.852Z,4.45
2022-11-30T04:01:02.587Z,4.44
2022-11-30T04:05:06.803Z,4.41
2022-11-30T04:09:12.241Z,4.40
2022-11-30T04:13:15.379Z,4.38
2022-11-30T04:17:18.917Z,4.37
2022-11-30T04:21:22.483Z,4.37
2022-11-30T04:25:27.814Z,4.39
2022-11-30T04:29:31.012Z,4.41
2022-11-30T04:33:34.322Z,4.44
2022-11-30T04:37:37.881Z,4.48
2022-11-30T04:41:43.284Z,4.53
2022-11-30T04:45:47.873Z,4.56
2022-11-30T04:49:51.018Z,4.56
2022-11-30T04:53:54.527Z,4.58
2022-11-30T04:57:59.213Z,4.59
2022-11-30T05:02:03.235Z,4.60
2022-11-30T05:06:07.196Z,4.61
2022-11-30T05:10:11.898Z,4.61
2022-11-30T05:14:16.673Z,4.62
2022-11-30T05:22:44.862Z,4.58
2022-11-30T05:26:48.499Z,4.57
2022-11-30T05:30:53.673Z,4.58
2022-11-30T05:34:56.992Z,4.58
2022-11-30T05:39:00.302Z,4.61
2022-11-30T05:43:05.357Z,4.64
2022-11-30T05:47:10.106Z,4.66
2022-11-30T05:51:15.969Z,4.66
2022-11-30T05:55:19.235Z,4.68
2022-11-30T05:59:22.887Z,4.69
2022-11-30T06:03:29.906Z,4.70
2022-11-30T06:07:33.156Z,4.70
2022-11-30T06:11:36.341Z,4.69
2022-11-30T06:15:39.994Z,4.68
2022-11-30T06:19:44.968Z,4.69
2022-11-30T06:23:47.967Z,4.69
2022-11-30T06:27:51.305Z,4.70
2022-11-30T06:31:55.074Z,4.72
2022-11-30T06:35:59.870Z,4.74
2022-11-30T06:40:07.560Z,4.75
2022-11-30T06:44:11.982Z,4.77
2022-11-30T06:48:15.889Z,4.80
2022-11-30T06:52:20.902Z,4.82
2022-11-30T06:56:24.450Z,4.86
2022-11-30T07:00:27.945Z,4.92
2022-11-30T07:04:31.487Z,4.97
2022-11-30T07:08:36.305Z,5.03
2022-11-30T07:12:39.707Z,5.08
2022-11-30T07:16:43.611Z,5.13
2022-11-30T07:20:46.955Z,5.18
2022-11-30T07:25:09.395Z,5.24
2022-11-30T07:29:13.056Z,5.27
2022-11-30T07:33:16.528Z,5.28
2022-11-30T07:37:19.954Z,5.29
2022-11-30T07:41:25.210Z,5.32
2022-11-30T07:45:28.779Z,5.35
2022-11-30T07:49:32.335Z,5.40
2022-11-30T07:53:35.890Z,5.44
2022-11-30T07:57:40.363Z,5.49
2022-11-30T08:01:44.139Z,5.51
2022-11-30T08:05:47.287Z,5.55
2022-11-30T08:09:50.864Z,5.59
2022-11-30T08:13:56.399Z,5.65
2022-11-30T08:18:07.605Z,5.73
2022-11-30T08:22:11.033Z,5.82
2022-11-30T08:26:16.559Z,5.90
2022-11-30T08:30:21.811Z,6.00
2022-11-30T08:34:27.472Z,6.10
2022-11-30T08:38:31.433Z,6.24
2022-11-30T08:42:34.694Z,6.37
2022-11-30T08:46:55.289Z,6.47
2022-11-30T08:51:02.791Z,6.55
2022-11-30T08:55:07.194Z,6.61
2022-11-30T08:59:10.310Z,6.65
2022-11-30T09:03:15.212Z,6.71
2022-11-30T09:07:19.035Z,6.74
2022-11-30T09:11:25.046Z,6.78
2022-11-30T09:15:28.560Z,6.82
2022-11-30T09:19:33.024Z,6.94
2022-11-30T09:23:37.348Z,7.05
2022-11-30T09:27:40.849Z,7.20
2022-11-30T09:31:44.348Z,7.36
2022-11-30T09:35:56.260Z,7.53
2022-11-30T09:39:59.771Z,7.71
2022-11-30T09:44:15.069Z,7.89
2022-11-30T09:48:42.933Z,8.01
2022-11-30T09:52:51.338Z,8.03
2022-11-30T09:56:54.847Z,7.97
2022-11-30T10:01:01.249Z,7.88
2022-11-30T10:05:14.353Z,7.79
2022-11-30T10:09:36.206Z,7.69
2022-11-30T10:13:54.716Z,7.57
2022-11-30T10:18:06.889Z,7.48
2022-11-30T10:22:21.971Z,7.43
2022-11-30T10:26:32.249Z,7.41
2022-11-30T10:30:38.031Z,7.38
2022-11-30T10:34:44.314Z,7.36
2022-11-30T10:38:51.366Z,7.35
2022-11-30T10:43:13.648Z,7.35
2022-11-30T10:47:23.127Z,7.36
2022-11-30T10:51:28.037Z,7.35
2022-11-30T10:55:37.040Z,7.35
2022-11-30T10:59:47.583Z,7.40
2022-11-30T11:03:50.860Z,7.48
2022-11-30T11:08:05.876Z,7.61
2022-11-30T11:12:19.581Z,7.75
2022-11-30T11:16:24.509Z,7.87
2022-11-30T11:20:34.786Z,7.97
2022-11-30T11:24:38.179Z,8.02
2022-11-30T11:28:46.754Z,8.07
2022-11-30T11:33:01.790Z,8.04
2022-11-30T11:37:09.561Z,7.95
2022-11-30T11:41:20.014Z,7.91
2022-11-30T11:45:26.617Z,7.79
2022-11-30T11:49:34.301Z,7.67
2022-11-30T11:53:53.556Z,7.61
2022-11-30T11:58:01.836Z,7.53
2022-11-30T12:02:14.969Z,7.44
2022-11-30T12:06:21.260Z,7.38
2022-11-30T12:14:56.539Z,7.27
2022-11-30T12:19:05.553Z,7.22
2022-11-30T12:27:53.379Z,7.26
2022-11-30T12:32:10.090Z,7.31
2022-11-30T12:36:20.762Z,7.37
2022-11-30T12:40:34.987Z,7.42
2022-11-30T12:44:59.895Z,7.50
2022-11-30T12:49:21.311Z,7.59
2022-11-30T12:53:30.593Z,7.66
2022-11-30T12:57:40.127Z,7.73
2022-11-30T13:01:59.273Z,7.77
2022-11-30T13:06:09.257Z,7.79
2022-11-30T13:14:17.439Z,7.81
2022-11-30T13:18:25.010Z,7.78
2022-11-30T13:22:46.541Z,7.74
2022-11-30T13:26:56.908Z,7.73
2022-11-30T13:31:07.361Z,7.71
2022-11-30T13:35:54.812Z,7.72
2022-11-30T13:39:59.136Z,7.72
2022-11-30T13:44:02.485Z,7.72
2022-11-30T13:48:21.939Z,7.71
2022-11-30T13:52:58.117Z,7.77
2022-11-30T13:57:03.122Z,7.80
2022-11-30T14:01:28.956Z,7.86
2022-11-30T14:05:41.789Z,7.87
2022-11-30T14:09:59.545Z,7.93
2022-11-30T14:14:40.628Z,7.93
2022-11-30T14:18:48.889Z,7.91
2022-11-30T14:22:54.021Z,7.85
2022-11-30T14:26:57.925Z,7.79
2022-11-30T14:31:01.882Z,7.71
2022-11-30T14:35:11.394Z,7.66
2022-11-30T14:39:29.295Z,7.58
2022-11-30T14:43:32.977Z,7.49
2022-11-30T14:47:37.279Z,7.42
2022-11-30T14:51:43.138Z,7.37
2022-11-30T14:55:53.017Z,7.29
2022-11-30T14:59:57.333Z,7.26
2022-11-30T15:04:07.299Z,7.20
2022-11-30T15:08:15.203Z,7.16
2022-11-30T15:12:21.996Z,7.10
2022-11-30T15:16:29.834Z,7.04
2022-11-30T15:20:39.765Z,7.01
2022-11-30T15:24:44.299Z,6.90
2022-11-30T15:28:55.592Z,6.91
2022-11-30T15:32:59.752Z,6.85
2022-11-30T15:37:03.808Z,6.80
2022-11-30T15:41:22.010Z,6.69
2022-11-30T15:45:27.367Z,6.69
2022-11-30T15:49:32.215Z,6.64
2022-11-30T15:53:37.093Z,6.59
2022-11-30T15:58:01.384Z,6.54
2022-11-30T16:02:09.174Z,6.48
2022-11-30T16:06:21.297Z,6.38
2022-11-30T16:10:26.700Z,6.37
2022-11-30T16:14:31.272Z,6.34
2022-11-30T16:18:35.666Z,6.30
2022-11-30T16:22:40.548Z,6.27
2022-11-30T16:26:51.017Z,6.14
2022-11-30T16:31:01.068Z,6.19
2022-11-30T16:35:04.431Z,6.17
2022-11-30T16:39:12.297Z,6.13
2022-11-30T16:43:15.889Z,6.09
2022-11-30T16:47:23.022Z,6.05
2022-11-30T16:51:28.582Z,6.01
2022-11-30T16:55:35.168Z,5.98
2022-11-30T16:59:38.491Z,5.96
2022-11-30T17:03:46.991Z,5.86
2022-11-30T17:07:51.536Z,5.92
2022-11-30T17:11:54.623Z,5.90
2022-11-30T17:15:58.026Z,5.89
2022-11-30T17:20:03.172Z,5.88
2022-11-30T17:24:07.734Z,5.85
2022-11-30T17:28:10.841Z,5.84
2022-11-30T17:32:13.914Z,5.82
2022-11-30T17:36:19.888Z,5.82
2022-11-30T17:40:23.483Z,5.83
2022-11-30T17:44:26.516Z,5.80
2022-11-30T17:48:32.398Z,5.81
2022-11-30T17:52:37.189Z,5.80
2022-11-30T17:56:41.436Z,5.79
2022-11-30T18:00:44.836Z,5.78
2022-11-30T18:04:48.180Z,5.75
2022-11-30T18:08:53.484Z,5.74
2022-11-30T18:12:57.175Z,5.72
2022-11-30T18:17:01.069Z,5.67
2022-11-30T18:21:05.845Z,5.70
2022-11-30T18:25:10.798Z,5.70
2022-11-30T18:29:15.625Z,5.71
2022-11-30T18:33:19.076Z,5.69
2022-11-30T18:37:22.545Z,5.80
2022-11-30T18:41:28.732Z,5.80
2022-11-30T18:45:34.154Z,5.89
2022-11-30T18:49:37.730Z,5.92
2022-11-30T18:53:41.558Z,5.93
2022-11-30T18:57:46.477Z,5.96
2022-11-30T19:01:51.174Z,5.97
2022-11-30T19:05:55.538Z,6.02
2022-11-30T19:09:58.629Z,6.08
2022-11-30T19:14:07.419Z,6.14
2022-11-30T19:18:13.173Z,6.17
2022-11-30T19:22:17.027Z,6.23
2022-11-30T19:26:20.218Z,6.26
2022-11-30T19:30:26.814Z,6.31
2022-11-30T19:34:30.298Z,6.32
2022-11-30T19:38:33.980Z,6.36
2022-11-30T19:42:37.080Z,6.42
2022-11-30T19:46:43.650Z,6.49
2022-11-30T19:50:47.058Z,6.54
2022-11-30T19:54:50.575Z,6.58
2022-11-30T19:58:55.129Z,6.62
2022-11-30T20:03:10.593Z,6.66
2022-11-30T20:12:30.761Z,6.75
2022-11-30T20:16:34.551Z,6.79
2022-11-30T20:20:39.532Z,6.82
2022-11-30T20:24:44.349Z,6.85
2022-11-30T20:28:47.454Z,6.89
2022-11-30T20:32:51.086Z,6.90
2022-11-30T20:36:55.918Z,6.91
2022-11-30T20:40:59.692Z,6.91
2022-11-30T20:45:02.819Z,6.89
2022-11-30T20:49:16.009Z,6.88
2022-11-30T20:53:21.352Z,6.86
2022-11-30T20:57:24.404Z,6.84
2022-11-30T21:01:27.774Z,6.83
2022-11-30T21:05:32.970Z,6.83
2022-11-30T21:09:37.974Z,6.85
2022-11-30T21:13:42.995Z,6.82
2022-11-30T21:17:46.099Z,6.81
2022-11-30T21:21:49.193Z,6.78
2022-11-30T21:25:55.204Z,6.75
2022-11-30T21:29:58.267Z,6.69
2022-11-30T21:34:01.992Z,6.65
2022-11-30T21:38:05.483Z,6.61
2022-11-30T21:42:10.440Z,6.59
2022-11-30T21:46:15.674Z,6.58
2022-11-30T21:50:24.329Z,6.57
2022-11-30T21:54:30.748Z,6.56
2022-11-30T21:58:36.270Z,6.55
2022-11-30T22:02:39.567Z,6.49
2022-11-30T22:06:43.508Z,6.43
2022-11-30T22:10:46.921Z,6.36
2022-11-30T22:14:52.013Z,6.27
2022-11-30T22:18:56.452Z,6.16
2022-11-30T22:23:00.075Z,6.05
2022-11-30T22:27:03.650Z,5.95
2022-11-30T22:31:11.978Z,5.87
2022-11-30T22:35:15.252Z,5.78
2022-11-30T22:39:20.768Z,5.74
2022-11-30T22:43:24.287Z,5.72
2022-11-30T22:47:28.858Z,5.75
2022-11-30T22:51:34.361Z,5.82
2022-11-30T22:55:38.013Z,5.90
2022-11-30T22:59:41.267Z,5.99
2022-11-30T23:03:47.601Z,6.09
2022-11-30T23:07:51.217Z,6.17
2022-11-30T23:11:54.775Z,6.24
2022-11-30T23:15:59.991Z,6.27
2022-11-30T23:20:05.634Z,6.32
2022-11-30T23:24:17.014Z,6.30
2022-11-30T23:28:20.340Z,6.24
2022-11-30T23:32:23.764Z,6.18
2022-11-30T23:36:28.823Z,6.11
2022-11-30T23:40:32.328Z,6.05
2022-11-30T23:44:35.851Z,5.99
2022-11-30T23:48:39.449Z,5.94
2022-11-30T23:52:44.292Z,5.89
2022-11-30T23:56:47.754Z,5.82
